Time;durP1;ratioP1;P1;durP2;ratioP2;P2;SDS_P1;SDS_P2;PMS_P1;PMS_P2;Temp;Humidity;BMP_temperature;BMP_pressure;BME280_temperature;BME280_humidity;BME280_pressure;Samples;Min_cycle;Max_cycle;Signal;HPM_P1;HPM_P2
2022/03/31 00:01:13;;;;;;;2.75;0.70;;;;;;;17.23;34.24;101795.91;4932028;29;20052;-73
2022/03/31 00:03:42;;;;;;;3.45;0.80;;;;;;;17.23;35.34;101803.75;4931663;28;20060;-72
2022/03/31 00:06:11;;;;;;;6.25;2.10;;;;;;;17.19;34.62;101804.53;4931516;29;20056;-75
2022/03/31 00:08:39;;;;;;;3.13;1.00;;;;;;;17.20;36.02;101814.13;4931729;29;20059;-72
2022/03/31 00:11:08;;;;;;;1.75;0.70;;;;;;;17.16;35.52;101807.97;4921513;29;20059;-73
2022/03/31 00:13:41;;;;;;;4.43;1.02;;;;;;;17.12;34.88;101805.28;4912822;29;20055;-72
2022/03/31 00:16:10;;;;;;;3.95;0.80;;;;;;;16.94;34.19;101790.09;4912696;29;20097;-78
2022/03/31 00:18:39;;;;;;;3.88;0.73;;;;;;;16.96;35.08;101797.13;4912650;29;20604;-69
2022/03/31 00:24:29;;;;;;;3.42;0.88;;;;;;;16.84;33.34;101794.28;4912562;29;20082;-71
2022/03/31 00:26:58;;;;;;;2.40;0.63;;;;;;;16.75;34.19;101789.69;4912390;29;20565;-73
2022/03/31 00:29:28;;;;;;;2.53;0.63;;;;;;;16.70;35.23;101798.31;4912581;29;20146;-71
2022/03/31 00:31:57;;;;;;;1.80;0.60;;;;;;;16.63;37.39;101793.78;4912250;29;20055;-74
2022/03/31 00:34:26;;;;;;;2.65;0.90;;;;;;;16.68;34.66;101800.00;4913168;29;20135;-72
2022/03/31 00:36:54;;;;;;;3.85;1.02;;;;;;;16.63;35.64;101797.28;4913613;29;20060;-72
2022/03/31 00:39:32;;;;;;;3.20;0.55;;;;;;;16.66;35.24;101793.88;4923058;29;20059;-70
2022/03/31 00:42:02;;;;;;;3.00;0.77;;;;;;;16.61;33.76;101795.50;4934482;29;20425;-71
2022/03/31 00:44:32;;;;;;;2.75;0.85;;;;;;;16.53;34.98;101777.03;4933050;29;20051;-71
2022/03/31 00:47:01;;;;;;;3.63;0.75;;;;;;;16.45;34.34;101776.88;4932264;29;20576;-70
2022/03/31 00:49:32;;;;;;;3.95;0.70;;;;;;;16.39;34.40;101775.84;4932990;29;20113;-71
2022/03/31 00:52:01;;;;;;;4.40;0.70;;;;;;;16.31;35.36;101780.94;4932752;29;20048;-70
2022/03/31 00:54:31;;;;;;;3.30;0.70;;;;;;;16.25;34.92;101786.00;4933110;29;20489;-71
2022/03/31 00:57:02;;;;;;;3.33;0.88;;;;;;;16.21;34.58;101785.03;4933934;29;20048;-69
2022/03/31 00:59:32;;;;;;;2.15;0.70;;;;;;;16.16;34.93;101781.44;4931827;29;20055;-71
2022/03/31 01:02:02;;;;;;;3.13;0.75;;;;;;;16.06;34.61;101775.13;4931680;29;20048;-71
2022/03/31 01:04:34;;;;;;;2.88;0.70;;;;;;;16.01;34.88;101776.75;4931893;28;20056;-71
2022/03/31 01:07:03;;;;;;;1.73;0.60;;;;;;;15.93;35.40;101778.28;4933311;29;20062;-69
2022/03/31 01:09:32;;;;;;;2.13;0.60;;;;;;;15.88;35.85;101772.09;4934519;29;20065;-73
2022/03/31 01:12:02;;;;;;;5.50;0.88;;;;;;;15.81;35.38;101773.66;4935506;29;20059;-71
2022/03/31 01:14:33;;;;;;;5.35;0.90;;;;;;;15.67;35.88;101781.13;4935146;29;20098;-72
2022/03/31 01:17:01;;;;;;;2.85;0.60;;;;;;;15.50;36.15;101782.41;4935066;29;20051;-70
2022/03/31 01:19:30;;;;;;;3.17;0.73;;;;;;;15.40;36.14;101785.63;4934317;29;20138;-70
2022/03/31 01:21:59;;;;;;;4.75;0.95;;;;;;;15.31;38.14;101801.03;4935004;29;20524;-71
2022/03/31 01:24:29;;;;;;;3.05;0.85;;;;;;;15.22;39.18;101807.75;4934926;29;20059;-73
2022/03/31 01:26:57;;;;;;;3.15;0.95;;;;;;;15.11;37.64;101803.97;4934954;29;20103;-72
2022/03/31 01:29:27;;;;;;;1.98;0.68;;;;;;;14.95;38.12;101796.56;4934960;29;20040;-72
2022/03/31 01:31:57;;;;;;;4.28;0.70;;;;;;;14.90;39.19;101804.25;4934767;29;20106;-70
2022/03/31 01:34:26;;;;;;;1.95;0.60;;;;;;;14.84;39.79;101799.78;4935013;29;20051;-72
2022/03/31 01:36:55;;;;;;;1.75;0.70;;;;;;;14.76;39.73;101811.69;4938553;29;20418;-71
2022/03/31 01:39:23;;;;;;;6.28;1.55;;;;;;;14.64;39.12;101800.91;4935191;29;20118;-71
2022/03/31 01:41:54;;;;;;;6.18;1.67;;;;;;;14.57;40.20;101793.75;4934893;29;20622;-70
2022/03/31 01:44:22;;;;;;;5.78;1.73;;;;;;;14.36;40.51;101768.81;4934596;29;20110;-71
2022/03/31 01:46:51;;;;;;;5.65;2.38;;;;;;;14.40;40.02;101801.00;4934027;29;20158;-70
2022/03/31 01:49:20;;;;;;;3.55;0.93;;;;;;;14.33;40.31;101806.88;4933702;29;20056;-72
2022/03/31 01:51:49;;;;;;;4.75;1.52;;;;;;;14.23;40.88;101803.09;4934190;29;20055;-72
2022/03/31 01:54:17;;;;;;;5.28;1.67;;;;;;;14.14;40.83;101802.81;4934139;29;20051;-71
2022/03/31 01:56:47;;;;;;;1.83;0.90;;;;;;;13.96;41.05;101793.59;4934503;29;20158;-70
2022/03/31 01:59:17;;;;;;;4.97;1.92;;;;;;;13.93;42.20;101808.22;4934854;29;20098;-71
2022/03/31 02:01:48;;;;;;;6.03;2.58;;;;;;;13.85;41.80;101814.88;4934684;29;20055;-71
2022/03/31 02:04:17;;;;;;;6.47;1.25;;;;;;;13.74;42.09;101818.03;4934451;28;20111;-71
2022/03/31 02:06:45;;;;;;;6.70;1.73;;;;;;;13.64;41.93;101809.84;4934109;29;20119;-71
2022/03/31 02:09:14;;;;;;;7.95;2.53;;;;;;;13.51;43.53;101806.81;4934123;29;20059;-71
2022/03/31 02:11:45;;;;;;;2.83;0.90;;;;;;;13.41;43.21;101817.75;4930831;29;20060;-72
2022/03/31 02:14:16;;;;;;;5.97;0.90;;;;;;;13.32;44.19;101817.44;4933560;29;20052;-72
2022/03/31 02:16:45;;;;;;;2.75;0.80;;;;;;;13.14;43.39;101813.28;4933989;29;20063;-71
2022/03/31 02:19:14;;;;;;;2.58;0.60;;;;;;;13.11;44.18;101812.31;4934257;29;20067;-72
2022/03/31 02:21:43;;;;;;;1.90;0.90;;;;;;;13.01;46.59;101818.91;4932902;29;20169;-71
2022/03/31 02:24:12;;;;;;;1.67;0.98;;;;;;;12.93;46.93;101829.00;4934183;29;20064;-71
2022/03/31 02:26:42;;;;;;;2.63;0.80;;;;;;;12.84;48.27;101825.19;4933395;29;20044;-71
2022/03/31 02:29:12;;;;;;;4.93;0.98;;;;;;;12.76;48.91;101820.59;4933864;29;20056;-71
2022/03/31 02:31:42;;;;;;;5.35;0.95;;;;;;;12.75;49.42;101820.53;4936859;29;20091;-71
2022/03/31 02:34:11;;;;;;;2.42;0.70;;;;;;;12.64;51.92;101814.91;4934794;29;20083;-73
2022/03/31 02:36:40;;;;;;;2.92;0.50;;;;;;;12.63;48.79;101814.88;4934726;29;20047;-73
2022/03/31 02:39:09;;;;;;;1.70;0.60;;;;;;;12.57;51.14;101810.31;4935121;29;20047;-74
2022/03/31 02:41:38;;;;;;;6.30;0.82;;;;;;;12.54;51.21;101818.00;4934314;29;20130;-74
2022/03/31 02:44:08;;;;;;;2.42;0.90;;;;;;;12.47;51.31;101818.59;4935663;29;20083;-75
2022/03/31 02:46:37;;;;;;;3.83;0.70;;;;;;;12.48;50.80;101839.41;4922516;29;20044;-73
2022/03/31 02:49:07;;;;;;;4.57;0.60;;;;;;;12.30;50.17;101821.41;4914987;29;20139;-74
2022/03/31 02:51:35;;;;;;;3.85;0.90;;;;;;;12.33;50.57;101837.09;4915436;29;20048;-72
2022/03/31 02:56:49;;;;;;;3.13;1.10;;;;;;;12.24;50.29;101834.13;4934705;29;20159;-72
2022/03/31 02:59:17;;;;;;;1.67;0.70;;;;;;;12.14;49.20;101816.44;4934257;29;20043;-73
2022/03/31 03:01:46;;;;;;;5.70;0.68;;;;;;;12.03;50.39;101820.31;4933891;29;20055;-73
2022/03/31 03:04:17;;;;;;;0.63;0.47;;;;;;;12.09;49.33;101834.38;4934380;28;21126;-74
2022/03/31 03:06:45;;;;;;;4.45;0.60;;;;;;;11.95;50.51;101828.63;4933603;29;20087;-73
2022/03/31 03:09:14;;;;;;;2.22;0.60;;;;;;;11.95;49.89;101841.63;4933351;29;20074;-73
2022/03/31 03:11:42;;;;;;;3.45;0.68;;;;;;;11.90;50.39;101837.94;4933177;29;20512;-74
2022/03/31 03:14:12;;;;;;;8.70;0.98;;;;;;;11.77;50.23;101834.75;4933645;29;20051;-74
2022/03/31 03:16:41;;;;;;;1.98;0.73;;;;;;;11.72;50.48;101839.75;4933638;29;20059;-74
2022/03/31 03:19:09;;;;;;;4.63;1.00;;;;;;;11.71;50.55;101856.13;4933592;29;20059;-73
2022/03/31 03:21:42;;;;;;;5.07;1.02;;;;;;;11.62;50.71;101855.75;4932571;29;20812;-72
2022/03/31 03:24:11;;;;;;;2.10;0.90;;;;;;;11.51;50.44;101852.69;4933365;29;20107;-74
2022/03/31 03:26:39;;;;;;;4.75;1.23;;;;;;;11.38;51.00;101848.66;4936043;29;20048;-74
2022/03/31 03:29:08;;;;;;;6.30;0.73;;;;;;;11.30;51.22;101848.34;4934579;29;20052;-74
2022/03/31 03:31:36;;;;;;;1.15;0.50;;;;;;;11.30;51.75;101863.00;4933520;29;20106;-75
2022/03/31 03:34:05;;;;;;;3.92;0.85;;;;;;;11.24;51.68;101867.91;4933287;29;20482;-74
2022/03/31 03:36:33;;;;;;;5.47;0.90;;;;;;;11.14;53.95;101863.16;4933574;29;20043;-76
2022/03/31 03:39:04;;;;;;;3.20;0.77;;;;;;;11.09;54.06;101865.53;4933628;29;20123;-77
2022/03/31 03:41:32;;;;;;;5.93;1.00;;;;;;;10.86;55.05;101860.19;4932928;29;20756;-75
2022/03/31 03:44:01;;;;;;;2.25;0.80;;;;;;;10.81;53.94;101863.34;4933479;29;20052;-76
2022/03/31 03:46:29;;;;;;;1.67;0.68;;;;;;;10.67;53.49;101853.28;4933614;29;20096;-76
2022/03/31 03:48:58;;;;;;;3.25;1.15;;;;;;;10.68;54.40;101862.81;4933071;29;20052;-77
2022/03/31 03:51:26;;;;;;;1.67;0.65;;;;;;;10.72;52.51;101889.72;4932505;29;20146;-75
2022/03/31 03:53:55;;;;;;;1.88;0.63;;;;;;;10.54;52.92;101861.28;4933036;29;20058;-78
2022/03/31 03:56:25;;;;;;;1.95;0.50;;;;;;;10.55;56.45;101867.31;4933261;29;20301;-77
2022/03/31 03:58:53;;;;;;;1.02;0.80;;;;;;;10.55;56.65;101875.97;4933209;29;20055;-77
2022/03/31 04:01:22;;;;;;;5.13;0.90;;;;;;;10.44;56.05;101861.63;4932430;29;20059;-76
2022/03/31 04:03:50;;;;;;;6.88;1.17;;;;;;;10.39;55.44;101857.94;4932465;29;20114;-78
2022/03/31 04:06:18;;;;;;;1.52;0.80;;;;;;;10.29;54.69;101853.16;4932891;28;20055;-76
2022/03/31 04:08:47;;;;;;;2.53;0.70;;;;;;;10.38;55.79;101879.47;4932402;29;20052;-75
2022/03/31 04:11:15;;;;;;;1.67;0.57;;;;;;;10.27;57.11;101866.84;4930259;29;20127;-77
2022/03/31 04:13:46;;;;;;;3.30;0.90;;;;;;;10.32;59.58;101879.16;4932054;29;20570;-74
2022/03/31 04:16:17;;;;;;;3.00;0.88;;;;;;;10.20;60.69;101862.19;4932820;29;20081;-76
2022/03/31 04:18:45;;;;;;;4.22;1.42;;;;;;;10.24;58.81;101869.31;4932770;29;20078;-76
2022/03/31 04:21:14;;;;;;;3.30;0.73;;;;;;;10.18;56.83;101863.81;4932519;29;20105;-74
2022/03/31 04:23:43;;;;;;;3.30;0.77;;;;;;;10.17;55.99;101869.81;4936166;29;20051;-74
2022/03/31 04:26:11;;;;;;;4.22;0.85;;;;;;;10.16;56.02;101883.56;4933632;29;20055;-76
2022/03/31 04:28:40;;;;;;;2.17;0.73;;;;;;;10.01;56.20;101854.34;4932785;29;20505;-76
2022/03/31 04:31:14;;;;;;;1.90;0.70;;;;;;;10.07;56.52;101877.94;4933552;29;20493;-74
2022/03/31 04:33:43;;;;;;;0.75;0.55;;;;;;;10.02;56.41;101874.22;4932773;29;20126;-76
2022/03/31 04:36:12;;;;;;;5.55;1.25;;;;;;;9.85;56.56;101869.13;4932537;29;20055;-76
2022/03/31 04:38:40;;;;;;;1.92;1.15;;;;;;;9.88;56.78;101877.84;4932260;29;20131;-76
2022/03/31 04:41:09;;;;;;;4.88;1.00;;;;;;;9.88;56.21;101895.94;4932315;29;20060;-75
2022/03/31 04:43:38;;;;;;;7.78;0.77;;;;;;;9.82;56.02;101902.53;4932069;29;20078;-76
2022/03/31 04:46:06;;;;;;;2.45;0.73;;;;;;;9.79;56.23;101894.63;4932155;29;20492;-77
2022/03/31 04:48:37;;;;;;;2.55;0.60;;;;;;;9.68;56.25;101885.44;4932384;29;20512;-76
2022/03/31 04:51:05;;;;;;;2.83;0.52;;;;;;;9.71;56.37;101888.22;4932375;29;20064;-78
2022/03/31 04:53:34;;;;;;;7.38;0.80;;;;;;;9.68;57.00;101888.03;4932099;29;20059;-74
2022/03/31 04:56:03;;;;;;;0.68;0.40;;;;;;;9.65;57.26;101893.06;4932097;29;20051;-75
2022/03/31 04:58:31;;;;;;;2.72;1.35;;;;;;;9.62;56.54;101888.63;4931663;29;20059;-76
2022/03/31 05:01:00;;;;;;;1.75;0.63;;;;;;;9.50;56.23;101871.59;4930997;29;20060;-76
2022/03/31 05:03:28;;;;;;;2.13;0.85;;;;;;;9.49;57.20;101877.56;4929768;29;20051;-73
2022/03/31 05:05:59;;;;;;;1.95;0.43;;;;;;;9.48;57.50;101873.19;4929899;28;20067;-73
2022/03/31 05:08:27;;;;;;;2.03;0.40;;;;;;;9.47;57.52;101892.09;4929842;29;20505;-74
2022/03/31 05:10:56;;;;;;;4.07;0.80;;;;;;;9.43;57.23;101903.97;4930169;29;20557;-75
2022/03/31 05:13:24;;;;;;;2.67;0.47;;;;;;;9.40;58.90;101904.69;4930201;29;20048;-74
2022/03/31 05:15:55;;;;;;;1.92;0.52;;;;;;;9.26;61.25;101892.75;4929780;29;20854;-75
2022/03/31 05:18:29;;;;;;;3.33;0.93;;;;;;;9.26;61.00;101908.25;4931623;29;20067;-74
2022/03/31 05:20:59;;;;;;;2.38;0.52;;;;;;;9.14;60.28;101912.75;4931677;29;20056;-75
2022/03/31 05:23:27;;;;;;;5.93;0.60;;;;;;;9.01;60.34;101906.94;4929053;29;20598;-74
2022/03/31 05:25:58;;;;;;;2.60;0.63;;;;;;;9.04;60.01;101910.47;4930345;29;20469;-76
2022/03/31 05:28:27;;;;;;;8.52;1.15;;;;;;;8.96;59.40;101918.69;4930252;29;20062;-75
2022/03/31 05:30:56;;;;;;;3.38;0.73;;;;;;;8.99;60.33;101928.31;4930059;29;20612;-75
2022/03/31 05:33:24;;;;;;;1.20;0.65;;;;;;;8.99;61.00;101938.63;4929751;29;20048;-74
2022/03/31 05:35:54;;;;;;;4.88;0.85;;;;;;;8.90;60.64;101931.25;4930015;29;20091;-75
2022/03/31 05:38:24;;;;;;;3.13;0.80;;;;;;;8.95;62.10;101944.41;4930015;29;20048;-74
2022/03/31 05:40:52;;;;;;;6.63;0.88;;;;;;;8.91;62.32;101947.63;4930287;29;20063;-74
2022/03/31 05:43:27;;;;;;;10.88;1.05;;;;;;;8.79;61.55;101942.69;4929786;29;20529;-74
2022/03/31 05:45:56;;;;;;;6.88;1.52;;;;;;;8.79;61.79;101953.88;4930142;29;20520;-74
2022/03/31 05:48:24;;;;;;;5.50;1.05;;;;;;;8.75;62.01;101957.13;4930000;29;20506;-74
2022/03/31 05:50:53;;;;;;;2.63;0.52;;;;;;;8.60;61.32;101936.50;4929872;29;20051;-75
2022/03/31 05:53:23;;;;;;;2.53;1.13;;;;;;;8.67;61.67;101953.22;4929743;29;20051;-74
2022/03/31 05:55:52;;;;;;;2.13;0.95;;;;;;;8.62;62.27;101967.56;4931807;29;20107;-75
2022/03/31 05:58:21;;;;;;;2.03;0.90;;;;;;;8.54;63.22;101959.38;4932443;29;20059;-74
2022/03/31 06:00:52;;;;;;;3.47;0.93;;;;;;;8.52;63.00;101960.06;4933211;29;20055;-74
2022/03/31 06:03:22;;;;;;;10.43;1.00;;;;;;;8.46;63.49;101960.63;4932710;29;20470;-74
2022/03/31 06:05:51;;;;;;;3.80;1.00;;;;;;;8.28;64.12;101931.16;4932825;28;20092;-76
2022/03/31 06:08:20;;;;;;;3.38;0.73;;;;;;;8.23;64.70;101930.03;4933345;29;20115;-74
2022/03/31 06:10:50;;;;;;;1.92;0.60;;;;;;;8.30;65.50;101952.78;4933160;29;20064;-75
2022/03/31 06:13:19;;;;;;;1.65;0.50;;;;;;;8.22;67.38;101956.59;4932875;29;20056;-75
2022/03/31 06:15:47;;;;;;;3.63;1.20;;;;;;;7.96;70.74;101940.50;4936028;29;20063;-75
2022/03/31 06:18:16;;;;;;;2.45;0.80;;;;;;;7.88;70.53;101937.47;4933931;29;20107;-74
2022/03/31 06:20:45;;;;;;;2.33;1.08;;;;;;;7.84;71.02;101950.97;4932858;29;20106;-77
2022/03/31 06:23:13;;;;;;;3.22;1.27;;;;;;;7.71;69.93;101944.19;4932813;29;20052;-77
2022/03/31 06:25:44;;;;;;;5.22;1.10;;;;;;;7.63;70.33;101941.94;4932691;29;20051;-77
2022/03/31 06:28:15;;;;;;;1.52;0.80;;;;;;;7.69;70.56;101945.75;4932239;29;20083;-76
2022/03/31 06:30:44;;;;;;;8.02;1.02;;;;;;;7.69;70.39;101945.75;4933069;29;20060;-75
2022/03/31 06:33:15;;;;;;;4.13;0.95;;;;;;;7.68;70.70;101949.16;4932479;29;20055;-75
2022/03/31 06:35:43;;;;;;;1.90;0.80;;;;;;;7.67;69.65;101937.09;4932496;29;20051;-73
2022/03/31 06:38:12;;;;;;;2.60;0.68;;;;;;;7.65;69.41;101938.69;4932712;29;20047;-75
2022/03/31 06:40:41;;;;;;;4.97;1.10;;;;;;;7.60;68.74;101940.06;4932956;29;20131;-75
2022/03/31 06:43:12;;;;;;;4.28;1.38;;;;;;;7.59;68.88;101940.00;4932088;29;20051;-76
2022/03/31 06:45:42;;;;;;;6.00;0.88;;;;;;;7.43;70.43;101922.72;4932552;29;20505;-75
2022/03/31 06:48:10;;;;;;;1.63;0.90;;;;;;;7.38;72.62;101927.59;4932605;29;20054;-77
2022/03/31 06:50:40;;;;;;;2.83;1.02;;;;;;;7.37;72.08;101942.94;4931784;29;20502;-74
2022/03/31 06:53:11;;;;;;;3.78;1.17;;;;;;;7.24;72.43;101924.16;4932396;29;20047;-75
2022/03/31 06:55:40;;;;;;;1.75;0.85;;;;;;;7.23;72.33;101937.81;4932427;29;20155;-75
2022/03/31 06:58:08;;;;;;;4.75;1.00;;;;;;;7.07;72.79;101917.06;4932208;29;20079;-74
2022/03/31 07:00:37;;;;;;;4.65;1.10;;;;;;;7.15;73.06;101941.63;4932207;29;20123;-75
2022/03/31 07:03:07;;;;;;;2.92;1.27;;;;;;;7.13;73.25;101943.19;4931773;29;20291;-75
2022/03/31 07:05:44;;;;;;;3.50;1.10;;;;;;;7.13;73.34;101940.63;4932146;28;20589;-76
2022/03/31 07:08:20;;;;;;;4.35;0.80;;;;;;;7.17;73.10;101946.84;4931598;29;20490;-75
2022/03/31 07:10:49;;;;;;;1.30;0.70;;;;;;;7.16;72.34;101945.94;4932337;29;20103;-73
2022/03/31 07:13:18;;;;;;;4.28;0.75;;;;;;;7.14;72.21;101944.97;4934441;29;20047;-75
2022/03/31 07:15:47;;;;;;;9.25;1.40;;;;;;;7.12;72.62;101950.03;4934070;29;20123;-73
2022/03/31 07:18:17;;;;;;;1.00;0.50;;;;;;;7.05;71.78;101939.25;4932502;29;20703;-74
2022/03/31 07:20:45;;;;;;;3.97;1.58;;;;;;;7.08;72.14;101958.34;4932971;29;20054;-75
2022/03/31 07:23:13;;;;;;;1.90;0.93;;;;;;;7.06;71.97;101959.06;4931535;29;20506;-74
2022/03/31 07:25:42;;;;;;;2.00;0.75;;;;;;;7.02;72.34;101957.97;4932057;29;20059;-76
2022/03/31 07:28:17;;;;;;;0.80;0.50;;;;;;;6.99;73.39;101959.47;4932363;29;20094;-75
2022/03/31 07:30:45;;;;;;;5.50;0.82;;;;;;;6.84;76.49;101962.81;4931951;29;20474;-75
2022/03/31 07:33:13;;;;;;;1.60;0.82;;;;;;;6.70;79.51;101963.63;4931712;29;20489;-75
2022/03/31 07:35:44;;;;;;;6.72;0.93;;;;;;;6.57;80.63;101966.19;4931921;29;20450;-76
2022/03/31 07:38:13;;;;;;;5.82;0.90;;;;;;;6.43;80.70;101948.19;4931699;29;20047;-75
2022/03/31 07:40:43;;;;;;;2.17;0.70;;;;;;;6.38;80.26;101949.56;4932017;29;20490;-75
2022/03/31 07:43:11;;;;;;;7.10;0.68;;;;;;;6.42;79.85;101953.25;4931252;29;20502;-75
2022/03/31 07:45:39;;;;;;;1.67;0.88;;;;;;;6.43;80.37;101947.28;4931010;29;20131;-74
2022/03/31 07:48:09;;;;;;;3.40;0.68;;;;;;;6.48;80.20;101946.81;4931279;29;20143;-75
2022/03/31 07:50:37;;;;;;;0.93;0.70;;;;;;;6.47;79.43;101942.47;4930948;29;20048;-74
2022/03/31 07:53:07;;;;;;;1.73;0.90;;;;;;;6.47;79.02;101934.75;4931702;29;20652;-74
2022/03/31 07:55:36;;;;;;;7.90;1.45;;;;;;;6.53;78.41;101943.63;4931391;29;20046;-76
2022/03/31 07:58:04;;;;;;;1.85;0.90;;;;;;;6.55;78.57;101934.34;4931350;29;20047;-75
2022/03/31 08:00:33;;;;;;;1.80;0.95;;;;;;;6.53;78.10;101930.78;4930892;29;20050;-73
2022/03/31 08:03:01;;;;;;;4.63;1.60;;;;;;;6.54;78.11;101935.16;4931161;29;20047;-74
2022/03/31 08:05:31;;;;;;;4.63;1.40;;;;;;;6.52;78.98;101929.00;4930733;28;20526;-74
2022/03/31 08:07:59;;;;;;;2.55;1.13;;;;;;;6.42;78.69;101909.53;4931790;29;20056;-73
2022/03/31 08:10:29;;;;;;;9.85;1.80;;;;;;;6.52;77.92;101936.72;4934107;29;20056;-75
2022/03/31 08:12:57;;;;;;;5.55;1.10;;;;;;;6.49;77.82;101938.31;4935606;29;20048;-75
2022/03/31 08:15:26;;;;;;;4.38;1.20;;;;;;;6.39;79.59;101941.09;4931674;29;20091;-73
2022/03/31 08:17:54;;;;;;;2.90;0.77;;;;;;;6.28;80.16;101936.91;4931811;29;20048;-74
2022/03/31 08:20:23;;;;;;;5.88;1.15;;;;;;;6.25;80.15;101923.84;4930278;29;20512;-75
2022/03/31 08:22:51;;;;;;;3.20;0.90;;;;;;;6.34;80.87;101938.97;4930561;29;20054;-73
2022/03/31 08:25:20;;;;;;;5.57;1.05;;;;;;;6.32;81.05;101933.72;4931399;29;20507;-74
2022/03/31 08:27:50;;;;;;;1.85;1.05;;;;;;;6.35;81.76;101927.94;4930115;29;20576;-75
2022/03/31 08:30:23;;;;;;;3.70;1.13;;;;;;;6.31;81.55;101923.38;4931107;29;20063;-75
2022/03/31 08:32:51;;;;;;;2.10;1.05;;;;;;;6.31;82.19;101913.97;4930768;29;20059;-74
2022/03/31 08:35:20;;;;;;;6.05;1.40;;;;;;;6.39;81.99;101932.47;4930570;29;20044;-74
2022/03/31 08:37:48;;;;;;;3.20;1.10;;;;;;;6.37;81.54;101916.03;4930179;29;20047;-74
2022/03/31 08:40:17;;;;;;;5.50;1.58;;;;;;;6.39;81.47;101920.53;4930483;29;20498;-74
2022/03/31 08:42:45;;;;;;;2.78;1.02;;;;;;;6.39;81.07;101920.53;4930611;29;20321;-75
2022/03/31 08:45:20;;;;;;;4.15;1.40;;;;;;;6.35;81.70;101913.38;4930137;29;20406;-75
2022/03/31 08:47:50;;;;;;;5.05;1.67;;;;;;;6.35;81.89;101923.66;4930995;29;20059;-75
2022/03/31 08:50:20;;;;;;;3.53;1.33;;;;;;;6.35;82.40;101931.38;4930421;29;20448;-75
2022/03/31 08:52:49;;;;;;;6.82;1.58;;;;;;;6.35;83.03;101915.97;4930443;29;20059;-74
2022/03/31 08:55:18;;;;;;;5.65;1.67;;;;;;;6.41;81.94;101929.19;4930511;29;20052;-75
2022/03/31 08:57:48;;;;;;;5.55;1.75;;;;;;;6.40;82.09;101932.56;4930630;29;20056;-74
2022/03/31 09:00:20;;;;;;;6.38;2.13;;;;;;;6.39;80.98;101930.81;4929955;29;20505;-74
2022/03/31 09:03:01;;;;;;;2.80;1.08;;;;;;;6.43;81.08;101937.91;4929972;29;20059;-75
2022/03/31 09:05:36;;;;;;;4.57;1.38;;;;;;;6.42;80.41;101945.53;4929702;28;20107;-74
2022/03/31 09:08:05;;;;;;;4.78;1.55;;;;;;;6.41;80.39;101938.59;4931169;29;20218;-73
2022/03/31 09:10:36;;;;;;;2.47;1.20;;;;;;;6.40;80.25;101930.00;4932923;29;20301;-73
2022/03/31 09:13:20;;;;;;;7.78;1.83;;;;;;;6.37;80.32;101934.94;4931726;29;20573;-74
2022/03/31 09:15:56;;;;;;;7.00;1.45;;;;;;;6.28;82.61;101939.50;4930646;29;20083;-74
2022/03/31 09:18:25;;;;;;;3.10;1.25;;;;;;;6.28;83.11;101936.91;4931309;29;20441;-73
2022/03/31 09:20:56;;;;;;;7.22;1.60;;;;;;;6.27;83.91;101932.56;4928990;29;20451;-74
2022/03/31 09:23:26;;;;;;;10.45;1.75;;;;;;;6.29;84.38;101924.16;4930627;29;20040;-74
2022/03/31 09:26:02;;;;;;;4.30;1.45;;;;;;;6.33;83.47;101930.38;4931169;29;20070;-73
2022/03/31 09:28:31;;;;;;;6.75;1.40;;;;;;;6.26;82.87;101925.66;4930708;29;20048;-74
2022/03/31 09:31:01;;;;;;;5.90;1.25;;;;;;;6.33;82.80;101945.81;4932104;29;20059;-72
2022/03/31 09:33:33;;;;;;;3.83;1.48;;;;;;;6.34;82.80;101947.56;4933617;29;20058;-73
2022/03/31 09:36:03;;;;;;;4.50;0.95;;;;;;;6.32;83.01;101949.16;4933497;29;20052;-75
2022/03/31 09:38:35;;;;;;;3.38;1.27;;;;;;;6.27;82.19;101937.69;4933919;29;20139;-74
2022/03/31 09:41:04;;;;;;;5.85;1.70;;;;;;;6.30;83.32;101935.34;4934432;29;20055;-74
2022/03/31 09:43:42;;;;;;;2.10;0.90;;;;;;;6.29;82.66;101941.25;4933178;29;20079;-74
2022/03/31 09:46:23;;;;;;;2.65;1.08;;;;;;;6.29;82.94;101942.13;4933738;29;20051;-74
2022/03/31 09:48:52;;;;;;;5.68;0.90;;;;;;;6.33;82.80;101945.81;4933362;29;20055;-74
2022/03/31 09:51:23;;;;;;;3.17;1.10;;;;;;;6.28;84.73;101936.91;4933097;29;20055;-75
2022/03/31 09:53:52;;;;;;;3.97;1.42;;;;;;;6.19;92.46;101931.16;4930364;29;20161;-76
2022/03/31 09:56:22;;;;;;;10.98;1.05;;;;;;;6.18;95.88;101939.66;4914808;29;20052;-74
2022/03/31 09:58:51;;;;;;;6.47;1.42;;;;;;;6.23;95.67;101943.41;4914653;29;20142;-75
2022/03/31 10:01:22;;;;;;;3.60;1.10;;;;;;;6.16;95.24;101925.81;4914312;29;20048;-75
2022/03/31 10:03:54;;;;;;;6.90;1.70;;;;;;;6.30;93.99;101935.34;4914262;29;20059;-74
2022/03/31 10:06:23;;;;;;;5.30;1.77;;;;;;;6.32;92.77;101938.88;4914175;29;20528;-74
2022/03/31 10:08:53;;;;;;;16.33;1.92;;;;;;;6.34;92.03;101927.00;4916642;29;20044;-74
2022/03/31 10:11:23;;;;;;;8.13;1.55;;;;;;;6.33;90.51;101920.09;4931488;29;20090;-73
2022/03/31 10:14:03;;;;;;;7.20;1.85;;;;;;;6.36;90.31;101928.00;4933431;29;20502;-75
2022/03/31 10:16:41;;;;;;;4.45;1.42;;;;;;;6.22;91.21;101903.97;4933482;29;20057;-75
2022/03/31 10:19:10;;;;;;;6.03;1.73;;;;;;;6.18;91.76;101919.97;4933243;29;20047;-74
2022/03/31 10:21:39;;;;;;;3.10;1.20;;;;;;;6.14;92.73;101911.97;4933315;29;20078;-74
2022/03/31 10:27:01;;;;;;;4.90;1.65;;;;;;;6.12;91.81;101908.44;4932817;29;20150;-74
2022/03/31 10:29:40;;;;;;;7.50;1.53;;;;;;;6.10;91.56;101904.88;4932843;29;20119;-74
2022/03/31 10:32:21;;;;;;;2.75;1.27;;;;;;;6.07;92.78;101908.13;4932857;29;20051;-74
2022/03/31 10:34:51;;;;;;;4.95;1.65;;;;;;;6.12;91.41;101918.72;4933005;29;20055;-75
2022/03/31 10:37:32;;;;;;;2.75;1.20;;;;;;;6.03;90.95;101909.59;4932706;29;20059;-74
2022/03/31 10:40:01;;;;;;;2.92;1.20;;;;;;;6.08;91.52;101921.06;4933087;29;20489;-76
2022/03/31 10:42:29;;;;;;;3.17;1.63;;;;;;;6.06;91.83;101916.59;4931443;29;20517;-73
2022/03/31 10:45:18;;;;;;;3.15;1.27;;;;;;;6.03;91.85;101914.72;4932661;29;20044;-73
2022/03/31 10:47:50;;;;;;;3.17;1.17;;;;;;;6.01;92.41;101915.44;4928422;29;20138;-75
2022/03/31 10:50:28;;;;;;;5.68;1.90;;;;;;;5.98;91.45;101912.63;4932027;29;20055;-74
2022/03/31 10:53:01;;;;;;;6.25;1.42;;;;;;;5.97;91.11;101918.56;4913399;29;20055;-74
2022/03/31 10:55:38;;;;;;;2.63;1.25;;;;;;;5.80;91.72;101894.31;4929873;29;20103;-76
2022/03/31 10:58:07;;;;;;;3.50;1.10;;;;;;;5.89;91.74;101923.16;4929131;29;20055;-75
2022/03/31 11:00:35;;;;;;;6.80;1.42;;;;;;;5.85;92.04;101927.19;4931993;29;20052;-73
2022/03/31 11:03:06;;;;;;;3.95;1.50;;;;;;;5.88;92.61;101929.06;4931271;29;20043;-74
2022/03/31 11:05:39;;;;;;;4.38;1.50;;;;;;;5.86;93.11;101923.88;4928731;28;20320;-75
2022/03/31 11:08:09;;;;;;;1.95;1.00;;;;;;;5.84;93.60;101914.25;4936312;29;20055;-75
2022/03/31 11:10:45;;;;;;;3.05;1.13;;;;;;;5.83;94.38;101909.91;4933906;29;20047;-75
2022/03/31 11:13:15;;;;;;;3.72;1.05;;;;;;;5.85;94.67;101909.22;4915288;29;20495;-74
2022/03/31 11:15:45;;;;;;;4.45;1.65;;;;;;;5.75;95.10;101898.22;4927875;29;20067;-74
2022/03/31 11:18:15;;;;;;;3.65;1.40;;;;;;;5.79;96.12;101907.91;4932256;29;20062;-74
2022/03/31 11:20:44;;;;;;;5.43;1.15;;;;;;;5.75;96.14;101909.41;4932218;29;20047;-74
2022/03/31 11:23:12;;;;;;;2.58;0.82;;;;;;;5.70;97.33;101894.47;4931713;29;20070;-76
2022/03/31 11:25:45;;;;;;;3.70;1.08;;;;;;;5.58;98.68;101897.97;4932402;29;20502;-75
2022/03/31 11:28:14;;;;;;;;;;;;;;;5.55;100.00;101902.91;4932545;29;20143;-75
2022/03/31 11:30:43;;;;;;;3.78;1.23;;;;;;;5.45;100.00;101885.09;4931782;29;19923;-76
2022/03/31 11:33:13;;;;;;;2.63;1.20;;;;;;;5.47;100.00;101883.50;4914676;29;20131;-74
2022/03/31 11:35:44;;;;;;;1.98;1.17;;;;;;;5.46;100.00;101874.06;4913461;29;20063;-76
2022/03/31 11:38:14;;;;;;;4.95;1.15;;;;;;;5.51;100.00;101890.66;4913218;29;20217;-73
2022/03/31 11:40:44;;;;;;;5.28;1.60;;;;;;;5.52;99.80;101883.81;4912771;29;20060;-74
2022/03/31 11:43:14;;;;;;;9.73;1.35;;;;;;;5.56;98.98;101896.97;4912418;29;20582;-74
2022/03/31 11:45:46;;;;;;;4.47;1.52;;;;;;;5.56;99.37;101891.84;4912261;29;20052;-75
2022/03/31 11:48:16;;;;;;;2.88;1.23;;;;;;;5.54;98.34;101890.84;4912347;29;20052;-73
2022/03/31 11:50:53;;;;;;;6.18;1.92;;;;;;;5.52;98.09;101876.13;4913874;29;20143;-75